Time;durP1;ratioP1;P1;durP2;ratioP2;P2;SDS_P1;SDS_P2;PMS_P1;PMS_P2;Temp;Humidity;BMP_temperature;BMP_pressure;BME280_temperature;BME280_humidity;BME280_pressure;Samples;Min_cycle;Max_cycle;Signal;HPM_P1;HPM_P2
2022/12/21 00:01:25;;;;;;;8.67;5.40;;;;;;;-143.84;81.24;45184.25;5088772;28;21556;-75
2022/12/21 00:03:56;;;;;;;8.53;5.43;;;;;;;-143.84;81.47;45193.78;5088697;28;20440;-75
2022/12/21 00:06:25;;;;;;;5.90;5.27;;;;;;;-143.84;81.20;45148.09;5088697;28;20438;-75
2022/12/21 00:08:54;;;;;;;7.33;5.30;;;;;;;-143.84;82.04;45125.22;5088477;28;20439;-75
2022/12/21 00:11:22;;;;;;;10.97;5.60;;;;;;;-143.84;81.62;45167.13;5088196;28;20502;-75
2022/12/21 00:13:50;;;;;;;13.87;8.17;;;;;;;-143.84;82.09;45113.81;5088394;28;20963;-75
2022/12/21 00:16:21;;;;;;;10.97;5.83;;;;;;;-143.84;82.35;45148.09;5088676;28;20865;-75
2022/12/21 00:18:48;;;;;;;7.47;5.50;;;;;;;-143.84;81.81;45151.91;5090238;28;20475;-75
2022/12/21 00:21:18;;;;;;;10.67;6.13;;;;;;;-143.84;82.08;45169.03;5092256;28;20473;-75
2022/12/21 00:23:47;;;;;;;7.33;5.70;;;;;;;-143.84;82.02;45157.59;5092121;28;20443;-75
2022/12/21 00:26:16;;;;;;;10.20;6.07;;;;;;;-143.84;81.69;45146.19;5092316;28;20929;-75
2022/12/21 00:28:43;;;;;;;8.40;5.43;;;;;;;-143.84;81.79;45163.31;5092213;28;20450;-75
2022/12/21 00:31:12;;;;;;;8.83;5.00;;;;;;;-143.84;81.87;45130.94;5091991;28;21000;-75
2022/12/21 00:33:40;;;;;;;7.90;4.83;;;;;;;-143.84;82.21;45157.59;5091989;28;20441;-75
2022/12/21 00:36:11;;;;;;;14.47;6.87;;;;;;;-143.84;81.58;45138.56;5091863;28;20485;-75
2022/12/21 00:38:40;;;;;;;6.53;4.90;;;;;;;-143.84;81.61;45125.22;5091734;28;20452;-75
2022/12/21 00:41:09;;;;;;;10.40;5.00;;;;;;;-143.84;82.27;45129.03;5091778;28;20447;-75
2022/12/21 00:43:38;;;;;;;7.40;4.63;;;;;;;-143.84;82.43;45163.31;5091677;28;20436;-75
2022/12/21 00:46:05;;;;;;;13.50;4.73;;;;;;;-143.84;82.44;45161.41;5091641;28;20471;-75
2022/12/21 00:48:34;;;;;;;8.23;5.20;;;;;;;-143.84;81.92;45151.91;5091835;28;20441;-75
2022/12/21 00:51:05;;;;;;;8.60;5.43;;;;;;;-143.84;82.33;45144.28;5091643;28;20485;-75
2022/12/21 00:53:32;;;;;;;8.60;5.77;;;;;;;-143.84;82.41;45119.53;5091604;28;20438;-75
2022/12/21 00:56:02;;;;;;;9.17;5.27;;;;;;;-143.84;82.36;45148.09;5091440;28;20445;-75
2022/12/21 00:58:31;;;;;;;14.10;6.10;;;;;;;-143.84;82.27;45144.28;5091581;28;20444;-75
2022/12/21 01:00:59;;;;;;;11.47;6.37;;;;;;;-143.84;82.10;45172.84;5091422;28;20443;-75
2022/12/21 01:03:27;;;;;;;8.30;5.27;;;;;;;-143.84;81.72;45153.81;5091868;28;20436;-75
2022/12/21 01:05:55;;;;;;;13.30;6.37;;;;;;;-143.84;82.11;45130.94;5091723;28;20444;-75
2022/12/21 01:08:24;;;;;;;10.73;5.10;;;;;;;-143.84;81.76;45142.38;5091679;28;20436;-75
2022/12/21 01:10:57;;;;;;;7.50;5.50;;;;;;;-143.84;82.03;45170.94;5091186;28;20477;-75
2022/12/21 01:13:26;;;;;;;5.53;4.70;;;;;;;-143.84;82.01;45163.31;5091363;28;20511;-75
2022/12/21 01:15:54;;;;;;;6.27;4.73;;;;;;;-143.84;82.22;45153.81;5091117;28;20478;-75
2022/12/21 01:18:21;;;;;;;9.70;5.50;;;;;;;-143.84;82.59;45170.94;5090883;28;20482;-75
2022/12/21 01:20:50;;;;;;;8.23;5.23;;;;;;;-143.84;82.49;45132.84;5091206;28;20489;-75
2022/12/21 01:23:18;;;;;;;5.80;4.47;;;;;;;-143.84;82.67;45144.28;5091020;28;20452;-75
2022/12/21 01:25:46;;;;;;;7.33;5.77;;;;;;;-143.84;82.44;45115.72;5090937;28;20497;-75
2022/12/21 01:28:13;;;;;;;8.40;6.57;;;;;;;-143.84;82.75;45096.66;5090869;28;20448;-75
2022/12/21 01:30:42;;;;;;;7.83;4.97;;;;;;;-143.84;82.62;45138.56;5090455;28;20536;-75
2022/12/21 01:33:14;;;;;;;7.87;5.10;;;;;;;-143.84;83.04;45140.47;5090497;28;20436;-75
2022/12/21 01:35:42;;;;;;;7.77;5.20;;;;;;;-143.84;82.87;45127.13;5090782;28;20444;-75
2022/12/21 01:38:10;;;;;;;6.80;5.43;;;;;;;-143.84;82.97;45130.94;5090979;28;20440;-75
2022/12/21 01:40:38;;;;;;;11.57;5.20;;;;;;;-143.84;82.96;45102.38;5090685;28;20511;-75
2022/12/21 01:43:17;;;;;;;8.03;5.50;;;;;;;-143.84;82.76;45121.44;5090565;28;20932;-75
2022/12/21 01:45:52;;;;;;;7.17;5.77;;;;;;;-143.84;82.83;45132.84;5090880;28;20439;-75
2022/12/21 01:48:21;;;;;;;5.87;4.83;;;;;;;-143.84;82.97;45123.34;5090632;28;20509;-75
2022/12/21 01:50:55;;;;;;;8.13;5.80;;;;;;;-143.84;82.84;45119.53;5090421;28;20500;-75
2022/12/21 01:53:28;;;;;;;11.40;6.27;;;;;;;-143.84;82.45;45123.34;5090480;28;20504;-75
2022/12/21 01:55:59;;;;;;;9.73;6.13;;;;;;;-143.84;82.58;45129.03;5090387;28;20503;-75
2022/12/21 01:58:29;;;;;;;8.33;5.43;;;;;;;-143.84;82.72;45132.84;5090663;28;20434;-75
2022/12/21 02:01:00;;;;;;;8.10;5.33;;;;;;;-143.84;82.39;45113.81;5092590;28;20451;-74
2022/12/21 02:03:32;;;;;;;9.50;6.07;;;;;;;-143.84;82.83;45102.38;5093288;28;20505;-74
2022/12/21 02:06:03;;;;;;;7.97;5.20;;;;;;;-143.84;83.03;45163.31;5093542;28;20515;-74
2022/12/21 02:08:30;;;;;;;6.43;5.20;;;;;;;-143.84;82.95;45092.88;5093245;28;20443;-74
2022/12/21 02:10:59;;;;;;;15.00;5.27;;;;;;;-143.84;83.49;45083.34;5093428;28;20896;-74
2022/12/21 02:13:26;;;;;;;9.13;5.77;;;;;;;-143.84;84.15;45049.06;5093057;28;20447;-74
2022/12/21 02:16:17;;;;;;;8.07;5.97;;;;;;;-143.84;84.15;45003.38;5093524;28;20474;-74
2022/12/21 02:19:26;;;;;;;10.97;6.20;;;;;;;-143.84;84.21;45031.94;5092989;28;20488;-74
2022/12/21 02:21:57;;;;;;;9.90;6.20;;;;;;;-143.84;84.15;45026.22;5092700;28;20451;-74
2022/12/21 02:25:09;;;;;;;9.20;5.47;;;;;;;-143.84;83.74;45068.13;5092832;28;20442;-74
2022/12/21 02:28:12;;;;;;;10.90;5.37;;;;;;;-143.84;83.78;45060.50;5063517;28;20498;-75
2022/12/21 02:30:56;;;;;;;6.80;4.50;;;;;;;-143.84;83.83;45066.22;5092749;28;20467;-74
2022/12/21 02:33:37;;;;;;;7.30;5.20;;;;;;;-143.84;84.42;45005.28;5092816;28;20431;-74
2022/12/21 02:36:17;;;;;;;8.47;4.30;;;;;;;-143.84;84.88;45012.88;5092427;28;20874;-74
2022/12/21 02:38:51;;;;;;;9.77;5.23;;;;;;;-143.84;84.49;45007.19;5092552;28;20440;-74
2022/12/21 02:41:34;;;;;;;7.40;5.40;;;;;;;-143.84;84.29;45012.88;5091858;28;20972;-74
2022/12/21 02:44:13;;;;;;;7.30;5.57;;;;;;;-143.84;84.66;45033.84;5092277;28;20447;-74
2022/12/21 02:46:50;;;;;;;7.63;5.10;;;;;;;-143.84;84.32;45003.38;5092340;28;20486;-74
2022/12/21 02:49:24;;;;;;;7.97;5.30;;;;;;;-143.84;84.64;44959.56;5092442;28;20435;-74
2022/12/21 02:51:56;;;;;;;8.40;5.33;;;;;;;-143.84;85.09;44965.28;5092501;28;21003;-74
2022/12/21 02:54:24;;;;;;;9.93;5.33;;;;;;;-143.84;85.13;44951.97;5092451;28;20447;-74
2022/12/21 02:56:51;;;;;;;10.37;4.60;;;;;;;-143.84;84.58;44997.66;5092377;28;20443;-74
2022/12/21 02:59:24;;;;;;;6.50;5.20;;;;;;;-143.84;84.57;44971.00;5092125;28;20999;-74
2022/12/21 03:02:23;;;;;;;7.43;4.80;;;;;;;-143.84;84.60;44984.31;5091442;28;20443;-74
2022/12/21 03:05:15;;;;;;;11.23;4.83;;;;;;;-143.84;84.87;44978.63;5091548;28;20438;-74
2022/12/21 03:07:55;;;;;;;5.27;4.20;;;;;;;-143.84;84.70;44972.91;5091331;28;20440;-74
2022/12/21 03:10:36;;;;;;;15.67;3.80;;;;;;;-143.84;85.04;44932.91;5091607;28;20486;-74
2022/12/21 03:13:17;;;;;;;14.33;4.60;;;;;;;-143.84;85.07;44902.44;5092477;28;20835;-74
2022/12/21 03:15:50;;;;;;;7.13;3.87;;;;;;;-143.84;85.31;44866.28;5092311;28;20831;-74
2022/12/21 03:18:26;;;;;;;4.33;3.50;;;;;;;-143.84;85.45;44906.25;5091798;28;20480;-74
2022/12/21 03:21:00;;;;;;;5.13;3.50;;;;;;;-143.84;85.39;44919.59;5091854;28;20439;-74
2022/12/21 03:23:33;;;;;;;7.57;3.60;;;;;;;-143.84;85.04;44929.09;5092216;28;21348;-74
2022/12/21 03:26:07;;;;;;;5.00;3.33;;;;;;;-143.84;84.79;44919.59;5092029;28;20920;-74
2022/12/21 03:28:37;;;;;;;7.67;5.00;;;;;;;-143.84;85.24;44919.59;5092208;28;20914;-74
2022/12/21 03:31:10;;;;;;;3.53;3.23;;;;;;;-143.84;84.84;44913.88;5091800;28;21010;-74
2022/12/21 03:33:43;;;;;;;9.20;3.70;;;;;;;-143.84;84.89;44946.25;5091931;28;20524;-74
2022/12/21 03:36:16;;;;;;;8.10;4.30;;;;;;;-143.84;84.43;44995.75;5091684;28;20435;-74
2022/12/21 03:38:46;;;;;;;7.80;4.00;;;;;;;-143.84;84.28;44986.22;5091671;28;20774;-74
2022/12/21 03:41:18;;;;;;;6.90;4.17;;;;;;;-143.84;84.40;44980.53;5092014;28;20443;-74
2022/12/21 03:43:49;;;;;;;6.70;4.97;;;;;;;-143.84;84.20;45039.53;5091798;28;20501;-74
2022/12/21 03:46:21;;;;;;;5.03;3.90;;;;;;;-143.84;84.02;45026.22;5091726;28;20433;-74
2022/12/21 03:48:54;;;;;;;4.00;3.60;;;;;;;-143.84;84.24;45012.88;5091648;28;20428;-74
2022/12/21 03:51:35;;;;;;;3.70;3.17;;;;;;;-143.84;83.86;45026.22;5091437;28;20485;-74
2022/12/21 03:54:10;;;;;;;6.20;4.23;;;;;;;-143.84;83.53;45043.34;5095524;28;20493;-74
2022/12/21 03:56:40;;;;;;;8.63;3.73;;;;;;;-143.84;83.71;45049.06;5095871;28;20423;-74
2022/12/21 03:59:11;;;;;;;8.37;5.70;;;;;;;-143.84;83.67;45064.31;5095566;28;20491;-74
2022/12/21 04:01:48;;;;;;;8.60;5.17;;;;;;;-143.84;83.66;45060.50;5095607;28;20443;-74
2022/12/21 04:04:25;;;;;;;7.17;4.10;;;;;;;-143.84;83.89;45045.25;5095354;28;20496;-74
2022/12/21 04:06:55;;;;;;;7.00;4.00;;;;;;;-143.84;83.80;45049.06;5095868;28;20447;-74
2022/12/21 04:09:22;;;;;;;5.00;3.80;;;;;;;-143.84;83.83;45030.03;5095491;28;20428;-75
2022/12/21 04:14:34;;;;;;;5.10;3.77;;;;;;;-143.84;83.88;45035.75;5095633;28;20419;-74
2022/12/21 04:17:02;;;;;;;5.83;4.33;;;;;;;-143.84;83.86;45014.78;5095308;28;20431;-75
2022/12/21 04:28:07;;;;;;;14.83;3.90;;;;;;;-143.84;84.11;45045.25;5095435;28;20939;-74
2022/12/21 04:30:31;;;;;;;6.20;5.17;;;;;;;-143.84;83.80;45035.75;5095157;28;20419;-74
2022/12/21 04:32:58;;;;;;;6.80;5.60;;;;;;;-143.84;83.91;45009.09;5095101;28;20785;-74
2022/12/21 04:35:27;;;;;;;8.93;4.50;;;;;;;-143.84;83.72;45047.16;5095068;28;20432;-74
2022/12/21 04:37:53;;;;;;;6.17;3.90;;;;;;;-143.84;83.66;45052.88;5095281;28;20447;-74
2022/12/21 04:40:20;;;;;;;4.03;3.63;;;;;;;-143.84;83.50;45052.88;5094852;28;20954;-74
2022/12/21 04:42:47;;;;;;;7.47;4.63;;;;;;;-143.84;83.16;45075.72;5094524;28;20463;-74
2022/12/21 04:45:15;;;;;;;5.90;4.73;;;;;;;-143.84;83.04;45052.88;5095026;28;20898;-74
2022/12/21 04:47:42;;;;;;;9.33;4.33;;;;;;;-143.84;83.32;45064.31;5094105;28;20965;-75
2022/12/21 04:50:10;;;;;;;6.30;5.10;;;;;;;-143.84;83.17;45066.22;5094005;28;20435;-73
2022/12/21 04:52:39;;;;;;;8.50;5.77;;;;;;;-143.84;83.35;45100.47;5094289;28;20804;-73
2022/12/21 04:55:06;;;;;;;9.30;5.30;;;;;;;-143.84;83.47;45045.25;5093787;28;21078;-72
2022/12/21 04:57:34;;;;;;;5.47;4.67;;;;;;;-143.84;83.09;45064.31;5093607;28;20950;-73
2022/12/21 05:00:01;;;;;;;7.23;5.70;;;;;;;-143.84;83.34;45075.72;5093812;28;20507;-74
2022/12/21 05:02:28;;;;;;;7.77;4.60;;;;;;;-143.84;82.97;45102.38;5093659;28;20438;-72
2022/12/21 05:04:55;;;;;;;5.47;4.17;;;;;;;-143.84;83.12;45049.06;5092547;28;20443;-72
2022/12/21 05:07:22;;;;;;;6.93;4.80;;;;;;;-143.84;83.28;45108.09;5093919;28;20451;-72
2022/12/21 05:09:51;;;;;;;11.80;4.53;;;;;;;-143.84;83.20;45083.34;5093288;28;20898;-72
2022/12/21 05:12:18;;;;;;;11.23;5.17;;;;;;;-143.84;82.96;45077.63;5093599;28;20471;-72
2022/12/21 05:14:45;;;;;;;8.30;5.00;;;;;;;-143.84;83.49;45090.97;5093076;28;20438;-72
2022/12/21 05:17:12;;;;;;;5.33;4.83;;;;;;;-143.84;83.95;45045.25;5092740;28;20447;-72
2022/12/21 05:19:39;;;;;;;6.73;4.83;;;;;;;-143.84;83.60;45030.03;5092039;28;21343;-72
2022/12/21 05:22:06;;;;;;;8.10;4.40;;;;;;;-143.84;84.09;45045.25;5093134;28;20446;-71
2022/12/21 05:24:33;;;;;;;4.67;4.10;;;;;;;-143.84;83.88;45020.50;5092892;28;20443;-71
2022/12/21 05:27:02;;;;;;;5.27;4.80;;;;;;;-143.84;83.94;45022.41;5092423;28;20455;-71
2022/12/21 05:29:29;;;;;;;6.50;4.60;;;;;;;-143.84;83.94;45050.97;5091763;28;20522;-71
2022/12/21 05:31:56;;;;;;;8.50;4.10;;;;;;;-143.84;83.83;45035.75;5091828;28;20490;-71
2022/12/21 05:34:23;;;;;;;5.83;4.60;;;;;;;-143.84;83.53;45045.25;5091882;28;20440;-72
2022/12/21 05:36:59;;;;;;;4.03;3.60;;;;;;;-143.84;84.23;45009.09;5092911;28;20505;-71
2022/12/21 05:39:33;;;;;;;7.87;4.03;;;;;;;-143.84;83.17;45037.66;5091919;28;20735;-71
2022/12/21 05:42:02;;;;;;;4.77;3.40;;;;;;;-143.84;82.98;45111.91;5092741;28;20432;-71
2022/12/21 05:44:30;;;;;;;3.77;3.47;;;;;;;-143.84;82.60;45151.91;5092252;28;21053;-71
2022/12/21 05:46:57;;;;;;;7.53;4.07;;;;;;;-143.84;82.01;45098.56;5092540;28;20432;-71
2022/12/21 05:49:24;;;;;;;9.70;4.57;;;;;;;-143.84;82.20;45115.72;5092397;28;20436;-71
2022/12/21 05:51:51;;;;;;;7.10;4.10;;;;;;;-143.84;81.78;45125.22;5092038;28;20503;-71
2022/12/21 05:54:18;;;;;;;6.20;4.00;;;;;;;-143.84;81.57;45161.41;5092308;28;20451;-71
2022/12/21 05:56:45;;;;;;;4.97;3.40;;;;;;;-143.84;81.46;45130.94;5092047;28;20500;-71
2022/12/21 05:59:15;;;;;;;7.90;4.13;;;;;;;-143.84;81.52;45129.03;5092114;28;20452;-71
2022/12/21 06:01:42;;;;;;;6.20;4.40;;;;;;;-143.84;81.79;45108.09;5091901;28;20513;-71
2022/12/21 06:04:10;;;;;;;3.93;3.63;;;;;;;-143.84;80.96;45155.69;5091949;28;20949;-71
2022/12/21 06:06:37;;;;;;;4.00;3.70;;;;;;;-143.84;80.22;45163.31;5091827;28;20504;-71
2022/12/21 06:09:04;;;;;;;4.37;4.00;;;;;;;-143.84;79.89;45159.50;5091860;28;20446;-71
2022/12/21 06:11:33;;;;;;;7.20;3.70;;;;;;;-143.84;79.55;45157.59;5091534;28;20525;-71
2022/12/21 06:14:00;;;;;;;3.83;3.27;;;;;;;-143.84;78.67;45216.63;5091584;28;20874;-71
2022/12/21 06:16:29;;;;;;;5.77;4.20;;;;;;;-143.84;78.98;45193.78;5090753;28;20444;-71
2022/12/21 06:18:56;;;;;;;5.00;3.77;;;;;;;-143.84;78.14;45186.16;5091659;28;20811;-71
2022/12/21 06:21:23;;;;;;;5.10;3.70;;;;;;;-143.84;78.05;45180.47;5091997;28;20483;-71
2022/12/21 06:23:50;;;;;;;7.20;4.20;;;;;;;-143.84;77.50;45188.06;5091708;28;20439;-71
2022/12/21 06:26:19;;;;;;;5.10;3.83;;;;;;;-143.84;77.51;45193.78;5091718;28;20466;-71
2022/12/21 06:28:50;;;;;;;5.43;3.20;;;;;;;-143.84;77.06;45195.69;5091141;28;20953;-71
2022/12/21 06:31:18;;;;;;;6.83;3.70;;;;;;;-143.84;77.20;45197.59;5091094;28;20505;-71
2022/12/21 06:33:46;;;;;;;3.60;3.40;;;;;;;-143.84;76.57;45203.31;5090335;28;20440;-71
2022/12/21 06:36:14;;;;;;;8.63;4.27;;;;;;;-143.84;76.76;45203.31;5090387;28;20432;-71
2022/12/21 06:38:41;;;;;;;4.63;3.43;;;;;;;-143.84;76.15;45191.88;5091565;28;20948;-71
2022/12/21 06:41:11;;;;;;;10.83;4.10;;;;;;;-143.84;76.28;45203.31;5091097;28;20447;-71
2022/12/21 06:43:39;;;;;;;8.80;3.77;;;;;;;-143.84;75.81;45188.06;5091057;28;20458;-71
2022/12/21 06:46:08;;;;;;;8.20;4.20;;;;;;;-143.84;75.42;45207.13;5091393;28;20439;-71
2022/12/21 06:48:36;;;;;;;9.33;3.27;;;;;;;-143.84;75.09;45210.94;5091018;28;20440;-71
2022/12/21 06:51:07;;;;;;;5.40;4.20;;;;;;;-143.84;74.27;45235.69;5091048;28;20435;-70
2022/12/21 06:53:36;;;;;;;4.57;4.13;;;;;;;-143.84;74.12;45209.03;5090755;28;20464;-70
2022/12/21 06:56:05;;;;;;;27.90;9.47;;;;;;;-143.84;73.27;45189.97;5091231;28;20844;-71
2022/12/21 06:58:33;;;;;;;4.10;3.70;;;;;;;-143.84;72.97;45210.94;5091220;28;20810;-71
2022/12/21 07:01:05;;;;;;;5.43;4.37;;;;;;;-143.84;72.38;45199.50;5091171;28;20432;-70
2022/12/21 07:03:33;;;;;;;28.63;12.27;;;;;;;-143.84;71.71;45197.59;5090756;28;20531;-70
2022/12/21 07:06:00;;;;;;;11.83;5.87;;;;;;;-143.84;71.01;45199.50;5091151;28;20926;-70
2022/12/21 07:08:29;;;;;;;4.20;3.77;;;;;;;-143.84;70.43;45212.84;5091027;28;20440;-71
2022/12/21 07:10:58;;;;;;;19.43;5.90;;;;;;;-143.84;70.00;45205.22;5091332;28;20436;-71
2022/12/21 07:13:25;;;;;;;15.57;6.17;;;;;;;-143.84;69.64;45239.50;5091513;28;20479;-71
2022/12/21 07:15:52;;;;;;;11.83;5.50;;;;;;;-143.84;68.75;45212.84;5091267;28;20868;-71
2022/12/21 07:18:20;;;;;;;29.63;7.67;;;;;;;-143.84;67.92;45199.50;5090971;28;20479;-71
2022/12/21 07:20:47;;;;;;;7.70;3.90;;;;;;;-143.84;66.73;45216.63;5091025;28;20448;-71
2022/12/21 07:23:15;;;;;;;11.47;5.30;;;;;;;-143.84;66.55;45224.25;5090852;28;20452;-71
2022/12/21 07:25:43;;;;;;;7.60;5.10;;;;;;;-143.84;65.80;45199.50;5091012;28;20436;-71
2022/12/21 07:28:10;;;;;;;13.53;4.20;;;;;;;-143.84;65.69;45226.16;5090675;28;20440;-71
2022/12/21 07:30:37;;;;;;;25.50;6.07;;;;;;;-143.84;64.76;45209.03;5090538;28;20486;-71
2022/12/21 07:33:04;;;;;;;8.67;4.73;;;;;;;-143.84;63.27;45209.03;5091071;28;20480;-71
2022/12/21 07:35:32;;;;;;;9.77;4.50;;;;;;;-143.84;62.85;45201.41;5091055;28;20440;-71
2022/12/21 07:37:59;;;;;;;6.83;4.03;;;;;;;-143.84;61.91;45197.59;5091371;28;20446;-71
2022/12/21 07:40:26;;;;;;;11.13;3.73;;;;;;;-143.84;62.27;45216.63;5091020;28;21138;-71
2022/12/21 07:42:55;;;;;;;9.83;3.87;;;;;;;-143.84;61.24;45212.84;5090674;28;20482;-71
2022/12/21 07:45:22;;;;;;;12.80;4.63;;;;;;;-143.84;61.16;45201.41;5090777;28;20440;-71
2022/12/21 07:47:49;;;;;;;7.27;4.23;;;;;;;-143.84;59.87;45189.97;5090770;28;20444;-71
2022/12/21 07:50:16;;;;;;;6.10;4.30;;;;;;;-143.84;58.81;45210.94;5090879;28;20440;-70
2022/12/21 07:52:43;;;;;;;7.83;5.17;;;;;;;-143.84;57.65;45199.50;5090699;28;20555;-71
2022/12/21 07:55:10;;;;;;;11.57;5.43;;;;;;;-143.84;57.75;45199.50;5090717;28;20447;-71
2022/12/21 07:57:38;;;;;;;7.37;3.83;;;;;;;-143.84;55.51;45197.59;5090917;28;20453;-71
2022/12/21 08:00:09;;;;;;;5.47;4.40;;;;;;;-143.84;55.39;45203.31;5090751;28;20446;-71
2022/12/21 08:02:36;;;;;;;7.50;5.23;;;;;;;-143.84;54.66;45199.50;5090972;28;20447;-71
2022/12/21 08:05:03;;;;;;;14.10;5.37;;;;;;;-143.84;53.49;45178.56;5088497;28;20492;-70
2022/12/21 08:07:30;;;;;;;14.90;6.00;;;;;;;-143.84;53.44;45189.97;5088387;28;21018;-71
2022/12/21 08:09:57;;;;;;;4.33;3.80;;;;;;;-143.84;52.15;45207.13;5088542;28;20436;-71
2022/12/21 08:12:24;;;;;;;11.13;4.93;;;;;;;-143.84;51.71;45186.16;5088255;28;20476;-70
2022/12/21 08:14:51;;;;;;;13.50;6.97;;;;;;;-143.84;52.62;45163.31;5088543;28;20443;-70
2022/12/21 08:17:20;;;;;;;12.27;4.93;;;;;;;-143.84;51.90;45180.47;5088600;28;20436;-70
2022/12/21 08:19:47;;;;;;;6.97;4.43;;;;;;;-143.84;51.73;45189.97;5088447;28;20474;-70
2022/12/21 08:22:14;;;;;;;6.30;3.97;;;;;;;-143.84;50.83;45186.16;5088403;28;20444;-71
2022/12/21 08:24:41;;;;;;;12.13;5.17;;;;;;;-143.84;51.56;45178.56;5088294;28;20439;-71
2022/12/21 08:27:08;;;;;;;11.70;4.47;;;;;;;-143.84;50.65;45167.13;5088583;28;20447;-70
2022/12/21 08:29:36;;;;;;;5.27;3.70;;;;;;;-143.84;49.76;45193.78;5088544;28;20488;-70
2022/12/21 08:32:03;;;;;;;12.00;4.70;;;;;;;-143.84;48.61;45189.97;5088187;28;20475;-71
2022/12/21 08:34:32;;;;;;;8.80;5.17;;;;;;;-143.84;48.71;45205.22;5088348;28;20505;-70
2022/12/21 08:37:00;;;;;;;14.13;4.23;;;;;;;-143.84;49.42;45174.75;5087563;28;20464;-70
2022/12/21 08:39:28;;;;;;;8.80;5.43;;;;;;;-143.84;47.96;45174.75;5089628;28;20953;-71
2022/12/21 08:41:55;;;;;;;8.70;5.60;;;;;;;-143.84;47.91;45172.84;5092083;28;20443;-71
2022/12/21 08:44:22;;;;;;;8.83;4.47;;;;;;;-143.84;47.59;45182.38;5092155;28;20497;-71
2022/12/21 08:46:49;;;;;;;14.53;5.83;;;;;;;-143.84;46.67;45176.66;5091765;28;20444;-70
2022/12/21 08:49:16;;;;;;;16.77;5.93;;;;;;;-143.84;47.34;45167.13;5091912;28;20437;-71
2022/12/21 08:51:45;;;;;;;9.80;5.23;;;;;;;-143.84;47.28;45159.50;5091396;28;20443;-70
2022/12/21 08:54:12;;;;;;;11.60;5.13;;;;;;;-143.84;46.94;45197.59;5092063;28;20440;-70
2022/12/21 08:56:39;;;;;;;7.60;4.80;;;;;;;-143.84;46.70;45184.25;5091730;28;20445;-71
2022/12/21 08:59:08;;;;;;;7.27;4.37;;;;;;;-143.84;46.02;45167.13;5091778;28;20509;-70
2022/12/21 09:01:35;;;;;;;8.37;4.80;;;;;;;-143.84;46.46;45186.16;5091710;28;20835;-70
2022/12/21 09:04:03;;;;;;;8.40;5.17;;;;;;;-143.84;45.98;45188.06;5091669;28;20434;-70
2022/12/21 09:06:31;;;;;;;9.60;5.43;;;;;;;-143.84;45.38;45163.31;5091539;28;20433;-71
2022/12/21 09:08:59;;;;;;;3.90;3.50;;;;;;;-143.84;44.96;45146.19;5091785;28;21005;-70
2022/12/21 09:11:27;;;;;;;7.67;3.40;;;;;;;-143.84;44.58;45161.41;5091648;28;20435;-70
2022/12/21 09:13:54;;;;;;;4.10;3.00;;;;;;;-143.84;45.44;45172.84;5091208;28;20927;-70
2022/12/21 09:16:23;;;;;;;5.27;3.50;;;;;;;-143.84;45.55;45159.50;5091367;28;20436;-70
2022/12/21 09:18:51;;;;;;;3.23;2.33;;;;;;;-143.84;44.96;45170.94;5091106;28;21150;-70
2022/12/21 09:21:20;;;;;;;3.20;2.90;;;;;;;-143.84;45.35;45159.50;5091521;28;21022;-71
2022/12/21 09:23:47;;;;;;;6.97;3.67;;;;;;;-143.84;45.60;45148.09;5091018;28;20433;-70
2022/12/21 09:26:16;;;;;;;5.10;3.27;;;;;;;-143.84;46.66;45186.16;5091394;28;20487;-70
2022/12/21 09:28:44;;;;;;;3.63;3.20;;;;;;;-143.84;45.69;45167.13;5091128;28;20956;-70
2022/12/21 09:31:13;;;;;;;4.10;2.50;;;;;;;-143.84;44.49;45165.22;5091031;28;20831;-70
2022/12/21 09:33:41;;;;;;;11.40;4.07;;;;;;;-143.84;45.48;45155.69;5090956;28;20479;-70
2022/12/21 09:36:14;;;;;;;4.20;3.40;;;;;;;-143.84;44.69;45142.38;5091065;28;20438;-70
2022/12/21 09:38:41;;;;;;;13.73;4.77;;;;;;;-143.84;44.24;45209.03;5091017;28;20444;-70
2022/12/21 09:41:36;;;;;;;4.50;3.70;;;;;;;-143.84;44.41;45163.31;5090874;28;20953;-70
2022/12/21 09:44:21;;;;;;;5.90;4.10;;;;;;;-143.84;43.99;45188.06;5090954;28;20935;-70
2022/12/21 09:46:54;;;;;;;9.47;4.77;;;;;;;-143.84;44.27;45151.91;5090398;28;20449;-70
2022/12/21 09:49:26;;;;;;;5.67;4.50;;;;;;;-143.84;44.55;45159.50;5089695;28;20503;-70
2022/12/21 09:51:57;;;;;;;8.43;5.10;;;;;;;-143.84;44.60;45142.38;5089889;28;20531;-70
2022/12/21 09:54:33;;;;;;;9.23;5.53;;;;;;;-143.84;45.44;45153.81;5090118;28;21228;-70
2022/12/21 09:57:02;;;;;;;7.23;5.17;;;;;;;-143.84;45.52;45140.47;5090049;28;21021;-70
2022/12/21 09:59:30;;;;;;;5.93;5.10;;;;;;;-143.84;43.87;45148.09;5090235;28;20450;-70
2022/12/21 10:02:06;;;;;;;8.30;6.00;;;;;;;-143.84;44.23;45151.91;5090180;28;20444;-70
2022/12/21 10:04:48;;;;;;;9.87;5.33;;;;;;;-143.84;44.58;45169.03;5089579;28;20514;-70
2022/12/21 10:07:35;;;;;;;7.80;3.17;;;;;;;-143.84;44.08;45151.91;5090195;28;20439;-70
2022/12/21 10:10:14;;;;;;;6.90;4.13;;;;;;;-143.84;44.92;45151.91;5090009;28;20507;-70
2022/12/21 10:12:49;;;;;;;7.03;3.90;;;;;;;-143.84;43.76;45132.84;5089852;28;20484;-70
2022/12/21 10:15:28;;;;;;;4.20;2.87;;;;;;;-143.84;44.31;45150.00;5089903;28;20504;-70
2022/12/21 10:18:04;;;;;;;3.93;2.63;;;;;;;-143.84;44.26;45150.00;5089836;28;20440;-71
2022/12/21 10:20:40;;;;;;;4.93;2.57;;;;;;;-143.84;44.54;45167.13;5089933;28;20435;-70
2022/12/21 10:23:17;;;;;;;3.70;2.50;;;;;;;-143.84;45.25;45161.41;5090173;28;20450;-70
2022/12/21 10:25:47;;;;;;;3.20;2.50;;;;;;;-143.84;46.40;45150.00;5089857;28;20440;-70
2022/12/21 10:28:27;;;;;;;5.70;2.57;;;;;;;-143.84;46.24;45170.94;5089738;28;20447;-70
2022/12/21 10:31:01;;;;;;;7.27;2.83;;;;;;;-143.84;47.27;45161.41;5089799;28;20875;-70
2022/12/21 10:33:30;;;;;;;5.57;2.83;;;;;;;-143.84;47.34;45172.84;5089497;28;20544;-70
2022/12/21 10:36:03;;;;;;;3.03;2.33;;;;;;;-143.84;47.63;45159.50;5089750;28;20509;-70
2022/12/21 10:38:34;;;;;;;13.33;2.63;;;;;;;-143.84;48.89;45189.97;5090050;28;21268;-70
2022/12/21 10:41:03;;;;;;;6.90;2.47;;;;;;;-143.84;50.13;45159.50;5089682;28;20466;-70
2022/12/21 10:43:37;;;;;;;7.73;3.10;;;;;;;-143.84;50.17;45178.56;5089653;28;20817;-70
2022/12/21 10:46:05;;;;;;;6.50;3.10;;;;;;;-143.84;51.22;45184.25;5089637;28;20925;-70
2022/12/21 10:48:32;;;;;;;4.93;2.90;;;;;;;-143.84;49.49;45169.03;5089439;28;20446;-72
2022/12/21 10:51:14;;;;;;;3.53;3.20;;;;;;;-143.84;50.31;45150.00;5089740;28;20438;-72
2022/12/21 10:53:57;;;;;;;6.20;2.90;;;;;;;-143.84;50.42;45188.06;5089215;28;20566;-72
2022/12/21 10:56:25;;;;;;;3.37;3.07;;;;;;;-143.84;51.08;45178.56;5089445;28;20520;-72
2022/12/21 10:58:55;;;;;;;3.90;3.33;;;;;;;-143.84;50.68;45193.78;5089201;28;20448;-73
2022/12/21 11:01:27;;;;;;;4.80;2.70;;;;;;;-143.84;49.64;45150.00;5088078;28;20444;-72
2022/12/21 11:04:11;;;;;;;7.20;2.80;;;;;;;-143.84;49.65;45161.41;5088837;28;20439;-72
2022/12/21 11:06:39;;;;;;;3.13;2.83;;;;;;;-143.84;49.08;45180.47;5089242;28;20442;-72
2022/12/21 11:09:28;;;;;;;2.53;2.30;;;;;;;-143.84;48.71;45167.13;5089315;28;20435;-72
2022/12/21 11:11:55;;;;;;;9.97;2.90;;;;;;;-143.84;49.57;45174.75;5089175;28;20519;-72
2022/12/21 11:14:24;;;;;;;4.03;2.73;;;;;;;-143.84;49.89;45140.47;5088945;28;20490;-72
2022/12/21 11:16:52;;;;;;;4.80;2.20;;;;;;;-143.84;50.36;45148.09;5088919;28;20454;-72
2022/12/21 11:19:23;;;;;;;2.53;2.33;;;;;;;-143.84;49.79;45151.91;5089087;28;20621;-72
2022/12/21 11:21:53;;;;;;;2.20;2.03;;;;;;;-143.84;50.55;45155.69;5088896;28;20524;-72
2022/12/21 11:24:26;;;;;;;3.83;2.60;;;;;;;-143.84;51.84;45167.13;5089365;28;20456;-72
2022/12/21 11:26:56;;;;;;;3.90;3.20;;;;;;;-143.84;51.79;45188.06;5089056;28;20440;-72
2022/12/21 11:29:29;;;;;;;5.20;3.10;;;;;;;-143.84;51.17;45184.25;5088857;28;20450;-70
2022/12/21 11:32:04;;;;;;;4.73;3.53;;;;;;;-143.84;52.00;45161.41;5088870;28;20443;-70
2022/12/21 11:34:36;;;;;;;4.10;2.50;;;;;;;-143.84;52.42;45174.75;5088933;28;20475;-70
2022/12/21 11:37:07;;;;;;;6.87;3.73;;;;;;;-143.84;53.41;45146.19;5088742;28;20439;-70
2022/12/21 11:39:38;;;;;;;4.23;2.10;;;;;;;-143.84;52.72;45195.69;5088765;28;20998;-70
2022/12/21 11:42:18;;;;;;;3.73;2.43;;;;;;;-143.84;53.89;45165.22;5088734;28;20442;-72
2022/12/21 11:44:49;;;;;;;3.80;2.20;;;;;;;-143.84;54.46;45161.41;5088380;28;20454;-72